Impacts METAR Board
IDs:

KLAX - Los Angeles Intl, CA, US

Updated at: 2300 UTC 01 Mar 2021
Potential Impact None Slight Moderate High
Time 01/11Z 01/12Z 01/13Z 01/14Z 01/15Z 01/16Z 01/17Z 01/18Z 01/19Z 01/20Z 01/21Z 01/22Z 01/23Z
Temp54 54 53 53 53 56 62 66 70 73 72 71 69
Dewpt12 10 8 9 10 12 13 11 11 11 18 16 15
Altim30.20 30.20 30.21 30.20 30.20 30.20 30.20 30.20 30.19 30.16 30.13 30.10 30.09
VIS10 10 10 10 10 10 10 10 10 10 10 10 10
CIG-- -- -- -- -- -- -- -- -- -- -- -- --
CoverCLRCLRCLRCLRCLRCLRCLRCLRCLRCLRCLRCLRCLR
FltCatVFRVFRVFRVFRVFRVFRVFRVFRVFRVFRVFRVFRVFR
WX--------------------------
WDir2010101040406070080210220230
WSpd9 8 7 6 8 9 9 7 5 4 11 11 10
WGst-- -- -- -- -- -- -- -- -- -- -- -- --
Raw hourly METARs
KLAX 011053Z 02009KT 10SM CLR 12/M11 A3020 RMK AO2 SLP224 T01221111
KLAX 011153Z 01008KT 10SM CLR 12/M12 A3020 RMK AO2 SLP224 T01221122 10156 20117 56002
KLAX 011253Z 01007KT 10SM CLR 12/M13 A3021 RMK AO2 SLP227 T01171133
KLAX 011353Z 01006KT 10SM CLR 12/M13 A3020 RMK AO2 SLP226 T01171128
KLAX 011453Z 04008KT 350V060 10SM CLR 12/M12 A3020 RMK AO2 SLP225 T01171122 50001
KLAX 011553Z 04009KT 10SM CLR 13/M11 A3020 RMK AO2 SLP227 T01331111
KLAX 011653Z 06009KT 10SM CLR 17/M11 A3020 RMK AO2 SLP225 T01671106
KLAX 011753Z 07007KT 10SM CLR 19/M12 A3020 RMK AO2 SLP226 T01891117 10189 20111 52002
KLAX 011853Z VRB05KT 10SM CLR 21/M12 A3019 RMK AO2 SLP222 T02111117
KLAX 011953Z 08004KT 10SM CLR 23/M12 A3016 RMK AO2 SLP211 T02281117
KLAX 012053Z 21011KT 10SM CLR 22/M08 A3013 RMK AO2 SLP201 T02221078 58025
KLAX 012153Z 22011KT 10SM CLR 22/M09 A3010 RMK AO2 SLP194 T02171089
KLAX 012253Z 23010KT 10SM CLR 21/M09 A3009 RMK AO2 SLP187 T02061094



Page loaded:  23:23 UTC  |   03:23 PM Pacific  |   04:23 PM Mountain  |   05:23 PM Central  |   06:23 PM Eastern

 

ADVISORIES

FORECASTS

FORECASTS

OBSERVATIONS

USER TOOLS

ABOUT US